sensor_id;sensor_type;location;lat;lon;timestamp;P1;durP1;ratioP1;P2;durP2;ratioP2
5363;SDS011;2705;41.410;2.160;2023-05-07T00:01:15;9.83;;;5.10;;
5363;SDS011;2705;41.410;2.160;2023-05-07T00:03:46;37.73;;;21.13;;
5363;SDS011;2705;41.410;2.160;2023-05-07T00:06:15;8.97;;;5.23;;
5363;SDS011;2705;41.410;2.160;2023-05-07T00:08:44;13.80;;;6.40;;
5363;SDS011;2705;41.410;2.160;2023-05-07T00:11:13;5.90;;;5.20;;
5363;SDS011;2705;41.410;2.160;2023-05-07T00:13:44;8.40;;;5.70;;
5363;SDS011;2705;41.410;2.160;2023-05-07T00:16:13;10.23;;;5.17;;
5363;SDS011;2705;41.410;2.160;2023-05-07T00:18:42;6.77;;;5.27;;
5363;SDS011;2705;41.410;2.160;2023-05-07T00:21:11;8.53;;;4.93;;
5363;SDS011;2705;41.410;2.160;2023-05-07T00:23:40;6.07;;;3.80;;
5363;SDS011;2705;41.410;2.160;2023-05-07T00:26:09;9.63;;;4.67;;
5363;SDS011;2705;41.410;2.160;2023-05-07T00:28:40;5.47;;;4.53;;
5363;SDS011;2705;41.410;2.160;2023-05-07T00:31:10;5.53;;;4.10;;
5363;SDS011;2705;41.410;2.160;2023-05-07T00:33:39;8.70;;;4.67;;
5363;SDS011;2705;41.410;2.160;2023-05-07T00:36:08;6.80;;;4.40;;
5363;SDS011;2705;41.410;2.160;2023-05-07T00:38:37;4.90;;;3.80;;
5363;SDS011;2705;41.410;2.160;2023-05-07T00:41:06;8.37;;;5.77;;
5363;SDS011;2705;41.410;2.160;2023-05-07T00:43:35;7.77;;;5.50;;
5363;SDS011;2705;41.410;2.160;2023-05-07T00:46:04;14.13;;;6.60;;
5363;SDS011;2705;41.410;2.160;2023-05-07T00:48:35;8.43;;;6.23;;
5363;SDS011;2705;41.410;2.160;2023-05-07T00:51:04;7.37;;;6.60;;
5363;SDS011;2705;41.410;2.160;2023-05-07T00:53:34;13.00;;;7.13;;
5363;SDS011;2705;41.410;2.160;2023-05-07T00:56:03;8.63;;;6.30;;
5363;SDS011;2705;41.410;2.160;2023-05-07T00:58:33;9.77;;;7.67;;
5363;SDS011;2705;41.410;2.160;2023-05-07T01:01:05;11.30;;;6.60;;
5363;SDS011;2705;41.410;2.160;2023-05-07T01:03:36;8.93;;;6.60;;
5363;SDS011;2705;41.410;2.160;2023-05-07T01:06:05;10.73;;;7.60;;
5363;SDS011;2705;41.410;2.160;2023-05-07T01:08:36;12.93;;;8.20;;
5363;SDS011;2705;41.410;2.160;2023-05-07T01:11:06;8.83;;;7.20;;
5363;SDS011;2705;41.410;2.160;2023-05-07T01:13:36;10.57;;;7.87;;
5363;SDS011;2705;41.410;2.160;2023-05-07T01:16:06;8.73;;;5.87;;
5363;SDS011;2705;41.410;2.160;2023-05-07T01:18:39;9.73;;;6.47;;
5363;SDS011;2705;41.410;2.160;2023-05-07T01:21:10;15.80;;;8.93;;
5363;SDS011;2705;41.410;2.160;2023-05-07T01:23:41;11.13;;;8.30;;
5363;SDS011;2705;41.410;2.160;2023-05-07T01:26:11;11.23;;;7.80;;
5363;SDS011;2705;41.410;2.160;2023-05-07T01:28:45;15.27;;;9.53;;
5363;SDS011;2705;41.410;2.160;2023-05-07T01:31:14;18.07;;;9.40;;
5363;SDS011;2705;41.410;2.160;2023-05-07T01:33:44;16.73;;;9.50;;
5363;SDS011;2705;41.410;2.160;2023-05-07T01:36:17;13.80;;;9.50;;
5363;SDS011;2705;41.410;2.160;2023-05-07T01:38:51;15.23;;;10.30;;
5363;SDS011;2705;41.410;2.160;2023-05-07T01:41:20;16.00;;;11.00;;
5363;SDS011;2705;41.410;2.160;2023-05-07T01:43:51;12.70;;;9.30;;
5363;SDS011;2705;41.410;2.160;2023-05-07T01:46:20;18.23;;;8.30;;
5363;SDS011;2705;41.410;2.160;2023-05-07T01:48:50;13.77;;;8.33;;
5363;SDS011;2705;41.410;2.160;2023-05-07T01:51:20;11.53;;;8.20;;
5363;SDS011;2705;41.410;2.160;2023-05-07T01:53:51;11.53;;;7.20;;
5363;SDS011;2705;41.410;2.160;2023-05-07T01:56:22;13.47;;;5.87;;
5363;SDS011;2705;41.410;2.160;2023-05-07T01:58:51;7.67;;;5.33;;
5363;SDS011;2705;41.410;2.160;2023-05-07T02:01:20;9.50;;;5.70;;
5363;SDS011;2705;41.410;2.160;2023-05-07T02:03:50;7.07;;;4.93;;
5363;SDS011;2705;41.410;2.160;2023-05-07T02:06:24;12.40;;;5.37;;
5363;SDS011;2705;41.410;2.160;2023-05-07T02:09:00;9.80;;;5.47;;
5363;SDS011;2705;41.410;2.160;2023-05-07T02:11:29;7.30;;;5.20;;
5363;SDS011;2705;41.410;2.160;2023-05-07T02:13:58;8.20;;;4.90;;
5363;SDS011;2705;41.410;2.160;2023-05-07T02:16:27;11.40;;;6.00;;
5363;SDS011;2705;41.410;2.160;2023-05-07T02:18:56;10.90;;;5.70;;
5363;SDS011;2705;41.410;2.160;2023-05-07T02:21:26;8.13;;;5.60;;
5363;SDS011;2705;41.410;2.160;2023-05-07T02:23:57;9.47;;;6.13;;
5363;SDS011;2705;41.410;2.160;2023-05-07T02:26:27;9.47;;;6.00;;
5363;SDS011;2705;41.410;2.160;2023-05-07T02:28:56;13.00;;;6.40;;
5363;SDS011;2705;41.410;2.160;2023-05-07T02:31:25;10.10;;;6.43;;
5363;SDS011;2705;41.410;2.160;2023-05-07T02:33:55;14.60;;;6.00;;
5363;SDS011;2705;41.410;2.160;2023-05-07T02:36:24;9.07;;;6.10;;
5363;SDS011;2705;41.410;2.160;2023-05-07T02:39:00;10.03;;;6.00;;
5363;SDS011;2705;41.410;2.160;2023-05-07T02:41:31;11.90;;;7.40;;
5363;SDS011;2705;41.410;2.160;2023-05-07T02:43:59;11.60;;;8.10;;
5363;SDS011;2705;41.410;2.160;2023-05-07T02:46:29;11.43;;;6.50;;
5363;SDS011;2705;41.410;2.160;2023-05-07T02:49:03;9.03;;;7.33;;
5363;SDS011;2705;41.410;2.160;2023-05-07T02:51:33;10.27;;;6.03;;
5363;SDS011;2705;41.410;2.160;2023-05-07T02:54:06;9.47;;;6.47;;
5363;SDS011;2705;41.410;2.160;2023-05-07T02:56:37;10.70;;;6.17;;
5363;SDS011;2705;41.410;2.160;2023-05-07T02:59:06;8.43;;;5.60;;
5363;SDS011;2705;41.410;2.160;2023-05-07T03:01:39;7.17;;;5.30;;
5363;SDS011;2705;41.410;2.160;2023-05-07T03:04:11;7.47;;;6.10;;
5363;SDS011;2705;41.410;2.160;2023-05-07T03:06:41;7.30;;;6.07;;
5363;SDS011;2705;41.410;2.160;2023-05-07T03:09:10;10.30;;;5.47;;
5363;SDS011;2705;41.410;2.160;2023-05-07T03:11:40;7.50;;;5.70;;
5363;SDS011;2705;41.410;2.160;2023-05-07T03:14:09;12.50;;;6.00;;
5363;SDS011;2705;41.410;2.160;2023-05-07T03:16:39;9.10;;;6.10;;
5363;SDS011;2705;41.410;2.160;2023-05-07T03:19:08;11.63;;;5.87;;
5363;SDS011;2705;41.410;2.160;2023-05-07T03:21:37;8.87;;;6.10;;
5363;SDS011;2705;41.410;2.160;2023-05-07T03:24:07;10.10;;;5.40;;
5363;SDS011;2705;41.410;2.160;2023-05-07T03:26:36;9.33;;;5.50;;
5363;SDS011;2705;41.410;2.160;2023-05-07T03:29:06;10.13;;;5.90;;
5363;SDS011;2705;41.410;2.160;2023-05-07T03:31:35;8.00;;;5.07;;
5363;SDS011;2705;41.410;2.160;2023-05-07T03:34:05;7.37;;;6.17;;
5363;SDS011;2705;41.410;2.160;2023-05-07T03:36:34;8.80;;;5.53;;
5363;SDS011;2705;41.410;2.160;2023-05-07T03:39:05;7.00;;;5.93;;
5363;SDS011;2705;41.410;2.160;2023-05-07T03:41:38;10.50;;;5.97;;
5363;SDS011;2705;41.410;2.160;2023-05-07T03:44:09;7.67;;;6.10;;
5363;SDS011;2705;41.410;2.160;2023-05-07T03:46:40;10.83;;;6.23;;
5363;SDS011;2705;41.410;2.160;2023-05-07T03:49:10;7.50;;;6.13;;
5363;SDS011;2705;41.410;2.160;2023-05-07T03:51:39;6.87;;;4.93;;
5363;SDS011;2705;41.410;2.160;2023-05-07T03:54:09;9.13;;;5.50;;
5363;SDS011;2705;41.410;2.160;2023-05-07T03:56:42;6.07;;;5.23;;
5363;SDS011;2705;41.410;2.160;2023-05-07T03:59:13;10.03;;;4.77;;
5363;SDS011;2705;41.410;2.160;2023-05-07T04:01:44;6.57;;;5.30;;
5363;SDS011;2705;41.410;2.160;2023-05-07T04:04:16;8.97;;;5.80;;
5363;SDS011;2705;41.410;2.160;2023-05-07T04:06:45;8.17;;;5.60;;
5363;SDS011;2705;41.410;2.160;2023-05-07T04:09:15;6.10;;;4.90;;
5363;SDS011;2705;41.410;2.160;2023-05-07T04:11:45;8.30;;;5.20;;
5363;SDS011;2705;41.410;2.160;2023-05-07T04:14:16;7.43;;;4.93;;
5363;SDS011;2705;41.410;2.160;2023-05-07T04:16:45;13.50;;;5.27;;
5363;SDS011;2705;41.410;2.160;2023-05-07T04:19:14;8.53;;;5.23;;
5363;SDS011;2705;41.410;2.160;2023-05-07T04:21:50;13.90;;;5.73;;
5363;SDS011;2705;41.410;2.160;2023-05-07T04:24:19;12.10;;;6.27;;
5363;SDS011;2705;41.410;2.160;2023-05-07T04:26:49;11.13;;;6.70;;
5363;SDS011;2705;41.410;2.160;2023-05-07T04:29:21;7.00;;;5.97;;
5363;SDS011;2705;41.410;2.160;2023-05-07T04:31:51;10.10;;;5.90;;
5363;SDS011;2705;41.410;2.160;2023-05-07T04:34:23;12.97;;;6.33;;
5363;SDS011;2705;41.410;2.160;2023-05-07T04:36:52;10.97;;;6.10;;
5363;SDS011;2705;41.410;2.160;2023-05-07T04:39:21;11.23;;;5.97;;
5363;SDS011;2705;41.410;2.160;2023-05-07T04:41:50;5.97;;;4.90;;
5363;SDS011;2705;41.410;2.160;2023-05-07T04:44:19;10.23;;;5.50;;
5363;SDS011;2705;41.410;2.160;2023-05-07T04:46:50;10.30;;;5.13;;
5363;SDS011;2705;41.410;2.160;2023-05-07T04:49:19;9.10;;;4.70;;
5363;SDS011;2705;41.410;2.160;2023-05-07T04:51:50;7.80;;;4.70;;
5363;SDS011;2705;41.410;2.160;2023-05-07T04:54:21;8.27;;;4.90;;
5363;SDS011;2705;41.410;2.160;2023-05-07T04:56:51;10.50;;;4.77;;
5363;SDS011;2705;41.410;2.160;2023-05-07T04:59:22;6.00;;;4.03;;
5363;SDS011;2705;41.410;2.160;2023-05-07T05:01:51;5.90;;;4.30;;
5363;SDS011;2705;41.410;2.160;2023-05-07T05:04:20;4.87;;;3.50;;
5363;SDS011;2705;41.410;2.160;2023-05-07T05:06:49;5.57;;;4.10;;
5363;SDS011;2705;41.410;2.160;2023-05-07T05:09:18;5.83;;;4.10;;
5363;SDS011;2705;41.410;2.160;2023-05-07T05:11:47;6.37;;;4.00;;
5363;SDS011;2705;41.410;2.160;2023-05-07T05:14:16;5.77;;;4.00;;
5363;SDS011;2705;41.410;2.160;2023-05-07T05:16:48;8.93;;;3.87;;
5363;SDS011;2705;41.410;2.160;2023-05-07T05:19:17;15.53;;;4.00;;
5363;SDS011;2705;41.410;2.160;2023-05-07T05:21:46;5.73;;;3.50;;
5363;SDS011;2705;41.410;2.160;2023-05-07T05:24:15;5.70;;;3.00;;
5363;SDS011;2705;41.410;2.160;2023-05-07T05:26:44;7.77;;;3.47;;
5363;SDS011;2705;41.410;2.160;2023-05-07T05:29:14;5.40;;;3.23;;
5363;SDS011;2705;41.410;2.160;2023-05-07T05:31:43;5.90;;;3.50;;
5363;SDS011;2705;41.410;2.160;2023-05-07T05:34:13;11.97;;;5.00;;
5363;SDS011;2705;41.410;2.160;2023-05-07T05:36:44;9.10;;;3.80;;
5363;SDS011;2705;41.410;2.160;2023-05-07T05:39:14;7.40;;;4.00;;
5363;SDS011;2705;41.410;2.160;2023-05-07T05:41:44;11.73;;;4.53;;
5363;SDS011;2705;41.410;2.160;2023-05-07T05:44:13;5.50;;;4.37;;
5363;SDS011;2705;41.410;2.160;2023-05-07T05:46:42;7.77;;;4.33;;
5363;SDS011;2705;41.410;2.160;2023-05-07T05:49:13;7.37;;;4.40;;
5363;SDS011;2705;41.410;2.160;2023-05-07T05:51:42;6.73;;;4.13;;
5363;SDS011;2705;41.410;2.160;2023-05-07T05:54:12;5.80;;;4.17;;
5363;SDS011;2705;41.410;2.160;2023-05-07T05:56:42;6.30;;;4.27;;
5363;SDS011;2705;41.410;2.160;2023-05-07T05:59:12;11.73;;;4.60;;
5363;SDS011;2705;41.410;2.160;2023-05-07T06:01:42;4.90;;;3.57;;
5363;SDS011;2705;41.410;2.160;2023-05-07T06:04:11;5.93;;;3.33;;
5363;SDS011;2705;41.410;2.160;2023-05-07T06:06:42;6.70;;;3.67;;
5363;SDS011;2705;41.410;2.160;2023-05-07T06:09:11;5.93;;;3.77;;
5363;SDS011;2705;41.410;2.160;2023-05-07T06:11:42;5.53;;;3.60;;
5363;SDS011;2705;41.410;2.160;2023-05-07T06:14:12;6.47;;;4.33;;
5363;SDS011;2705;41.410;2.160;2023-05-07T06:16:42;5.37;;;3.40;;
5363;SDS011;2705;41.410;2.160;2023-05-07T06:19:11;4.43;;;3.57;;
5363;SDS011;2705;41.410;2.160;2023-05-07T06:21:42;4.50;;;3.50;;
5363;SDS011;2705;41.410;2.160;2023-05-07T06:24:12;5.50;;;3.67;;
5363;SDS011;2705;41.410;2.160;2023-05-07T06:26:41;6.73;;;3.10;;
5363;SDS011;2705;41.410;2.160;2023-05-07T06:29:10;5.47;;;4.53;;
5363;SDS011;2705;41.410;2.160;2023-05-07T06:31:41;5.30;;;3.67;;
5363;SDS011;2705;41.410;2.160;2023-05-07T06:34:10;9.43;;;3.30;;
5363;SDS011;2705;41.410;2.160;2023-05-07T06:36:43;10.40;;;4.30;;
5363;SDS011;2705;41.410;2.160;2023-05-07T06:39:28;8.97;;;4.17;;
5363;SDS011;2705;41.410;2.160;2023-05-07T06:41:57;5.63;;;3.83;;
5363;SDS011;2705;41.410;2.160;2023-05-07T06:44:30;9.70;;;5.07;;
5363;SDS011;2705;41.410;2.160;2023-05-07T06:47:12;4.57;;;3.77;;
5363;SDS011;2705;41.410;2.160;2023-05-07T06:49:45;6.63;;;4.80;;
5363;SDS011;2705;41.410;2.160;2023-05-07T06:52:18;8.63;;;4.67;;
5363;SDS011;2705;41.410;2.160;2023-05-07T06:54:49;8.80;;;4.70;;
5363;SDS011;2705;41.410;2.160;2023-05-07T06:57:21;6.90;;;4.53;;
5363;SDS011;2705;41.410;2.160;2023-05-07T06:59:51;8.47;;;4.83;;
5363;SDS011;2705;41.410;2.160;2023-05-07T07:02:20;6.87;;;3.80;;
5363;SDS011;2705;41.410;2.160;2023-05-07T07:04:50;7.37;;;5.53;;
5363;SDS011;2705;41.410;2.160;2023-05-07T07:07:20;8.50;;;4.67;;
5363;SDS011;2705;41.410;2.160;2023-05-07T07:09:50;6.50;;;4.30;;
5363;SDS011;2705;41.410;2.160;2023-05-07T07:12:19;5.90;;;5.00;;
5363;SDS011;2705;41.410;2.160;2023-05-07T07:14:49;9.27;;;5.10;;
5363;SDS011;2705;41.410;2.160;2023-05-07T07:17:21;8.60;;;5.30;;
5363;SDS011;2705;41.410;2.160;2023-05-07T07:19:51;8.67;;;5.77;;
5363;SDS011;2705;41.410;2.160;2023-05-07T07:22:22;10.30;;;5.93;;
5363;SDS011;2705;41.410;2.160;2023-05-07T07:24:50;8.10;;;5.10;;
5363;SDS011;2705;41.410;2.160;2023-05-07T07:27:20;7.00;;;5.40;;
5363;SDS011;2705;41.410;2.160;2023-05-07T07:29:49;7.00;;;5.10;;
5363;SDS011;2705;41.410;2.160;2023-05-07T07:32:18;14.20;;;5.53;;
5363;SDS011;2705;41.410;2.160;2023-05-07T07:34:48;7.13;;;4.60;;
5363;SDS011;2705;41.410;2.160;2023-05-07T07:37:17;8.67;;;4.40;;
5363;SDS011;2705;41.410;2.160;2023-05-07T07:39:47;4.80;;;3.80;;
5363;SDS011;2705;41.410;2.160;2023-05-07T07:42:16;11.17;;;4.77;;
5363;SDS011;2705;41.410;2.160;2023-05-07T07:44:45;12.57;;;4.73;;
5363;SDS011;2705;41.410;2.160;2023-05-07T07:47:17;5.60;;;4.33;;
5363;SDS011;2705;41.410;2.160;2023-05-07T07:49:47;8.40;;;5.60;;
5363;SDS011;2705;41.410;2.160;2023-05-07T07:52:18;11.43;;;5.17;;
5363;SDS011;2705;41.410;2.160;2023-05-07T07:54:49;7.70;;;5.23;;
5363;SDS011;2705;41.410;2.160;2023-05-07T07:57:19;11.20;;;5.70;;
5363;SDS011;2705;41.410;2.160;2023-05-07T07:59:49;10.97;;;6.97;;
5363;SDS011;2705;41.410;2.160;2023-05-07T08:02:19;8.23;;;5.80;;
5363;SDS011;2705;41.410;2.160;2023-05-07T08:04:49;8.73;;;4.80;;
5363;SDS011;2705;41.410;2.160;2023-05-07T08:07:19;13.00;;;5.37;;
5363;SDS011;2705;41.410;2.160;2023-05-07T08:09:51;6.97;;;5.37;;
5363;SDS011;2705;41.410;2.160;2023-05-07T08:12:23;5.97;;;4.70;;
5363;SDS011;2705;41.410;2.160;2023-05-07T08:14:53;8.57;;;5.30;;
5363;SDS011;2705;41.410;2.160;2023-05-07T08:17:23;8.43;;;5.13;;
5363;SDS011;2705;41.410;2.160;2023-05-07T08:19:52;7.43;;;4.60;;
5363;SDS011;2705;41.410;2.160;2023-05-07T08:22:22;6.43;;;4.87;;
5363;SDS011;2705;41.410;2.160;2023-05-07T08:24:52;6.83;;;4.10;;
5363;SDS011;2705;41.410;2.160;2023-05-07T08:27:22;5.40;;;4.90;;
5363;SDS011;2705;41.410;2.160;2023-05-07T08:29:51;9.57;;;5.30;;
5363;SDS011;2705;41.410;2.160;2023-05-07T08:32:21;7.20;;;4.13;;
5363;SDS011;2705;41.410;2.160;2023-05-07T08:34:50;7.80;;;4.70;;
5363;SDS011;2705;41.410;2.160;2023-05-07T08:37:19;6.50;;;4.30;;
5363;SDS011;2705;41.410;2.160;2023-05-07T08:39:49;12.80;;;4.87;;
5363;SDS011;2705;41.410;2.160;2023-05-07T08:42:22;8.73;;;5.60;;
5363;SDS011;2705;41.410;2.160;2023-05-07T08:44:53;6.57;;;4.20;;
5363;SDS011;2705;41.410;2.160;2023-05-07T08:47:29;8.97;;;5.90;;
5363;SDS011;2705;41.410;2.160;2023-05-07T08:50:05;10.80;;;6.47;;
5363;SDS011;2705;41.410;2.160;2023-05-07T08:52:36;7.70;;;5.30;;
5363;SDS011;2705;41.410;2.160;2023-05-07T08:55:06;5.37;;;4.80;;
5363;SDS011;2705;41.410;2.160;2023-05-07T08:57:38;14.20;;;6.37;;
5363;SDS011;2705;41.410;2.160;2023-05-07T09:00:09;9.10;;;4.93;;
5363;SDS011;2705;41.410;2.160;2023-05-07T09:02:41;5.80;;;4.17;;
5363;SDS011;2705;41.410;2.160;2023-05-07T09:05:11;7.37;;;4.37;;
5363;SDS011;2705;41.410;2.160;2023-05-07T09:07:41;6.70;;;4.23;;
5363;SDS011;2705;41.410;2.160;2023-05-07T09:10:12;9.23;;;4.20;;
5363;SDS011;2705;41.410;2.160;2023-05-07T09:12:47;6.83;;;4.37;;
5363;SDS011;2705;41.410;2.160;2023-05-07T09:15:17;12.87;;;5.40;;
5363;SDS011;2705;41.410;2.160;2023-05-07T09:17:47;5.90;;;4.30;;
5363;SDS011;2705;41.410;2.160;2023-05-07T09:20:16;6.77;;;4.50;;
5363;SDS011;2705;41.410;2.160;2023-05-07T09:22:46;7.43;;;5.30;;
5363;SDS011;2705;41.410;2.160;2023-05-07T09:25:16;7.63;;;4.93;;
5363;SDS011;2705;41.410;2.160;2023-05-07T09:28:00;4.10;;;3.70;;
5363;SDS011;2705;41.410;2.160;2023-05-07T09:30:31;7.50;;;4.43;;
5363;SDS011;2705;41.410;2.160;2023-05-07T09:33:04;9.17;;;5.20;;
5363;SDS011;2705;41.410;2.160;2023-05-07T09:35:37;5.70;;;3.97;;
5363;SDS011;2705;41.410;2.160;2023-05-07T09:38:11;7.67;;;4.10;;
5363;SDS011;2705;41.410;2.160;2023-05-07T09:40:41;8.93;;;4.70;;
5363;SDS011;2705;41.410;2.160;2023-05-07T09:43:15;10.13;;;4.03;;
5363;SDS011;2705;41.410;2.160;2023-05-07T09:45:51;5.20;;;3.47;;
5363;SDS011;2705;41.410;2.160;2023-05-07T09:48:24;9.13;;;3.20;;
5363;SDS011;2705;41.410;2.160;2023-05-07T09:50:55;8.57;;;4.90;;
5363;SDS011;2705;41.410;2.160;2023-05-07T09:53:33;7.33;;;4.43;;
5363;SDS011;2705;41.410;2.160;2023-05-07T09:56:04;7.83;;;4.00;;
5363;SDS011;2705;41.410;2.160;2023-05-07T09:58:35;9.97;;;5.90;;
5363;SDS011;2705;41.410;2.160;2023-05-07T10:01:07;5.20;;;4.00;;
5363;SDS011;2705;41.410;2.160;2023-05-07T10:03:36;9.07;;;5.10;;
5363;SDS011;2705;41.410;2.160;2023-05-07T10:06:09;8.70;;;5.70;;
5363;SDS011;2705;41.410;2.160;2023-05-07T10:08:40;14.60;;;7.50;;
5363;SDS011;2705;41.410;2.160;2023-05-07T10:11:11;18.20;;;6.23;;
5363;SDS011;2705;41.410;2.160;2023-05-07T10:13:45;10.13;;;4.43;;
5363;SDS011;2705;41.410;2.160;2023-05-07T10:16:16;14.07;;;4.17;;
5363;SDS011;2705;41.410;2.160;2023-05-07T10:18:47;7.63;;;5.03;;
5363;SDS011;2705;41.410;2.160;2023-05-07T10:21:23;6.43;;;4.30;;
5363;SDS011;2705;41.410;2.160;2023-05-07T10:23:58;12.70;;;5.43;;
5363;SDS011;2705;41.410;2.160;2023-05-07T10:26:34;11.97;;;5.73;;
5363;SDS011;2705;41.410;2.160;2023-05-07T10:29:10;5.60;;;4.60;;
5363;SDS011;2705;41.410;2.160;2023-05-07T10:31:48;11.90;;;7.20;;
5363;SDS011;2705;41.410;2.160;2023-05-07T10:34:24;16.90;;;6.60;;
5363;SDS011;2705;41.410;2.160;2023-05-07T10:36:57;21.80;;;5.60;;
5363;SDS011;2705;41.410;2.160;2023-05-07T10:39:28;7.30;;;4.93;;
5363;SDS011;2705;41.410;2.160;2023-05-07T10:42:07;10.40;;;5.13;;
5363;SDS011;2705;41.410;2.160;2023-05-07T10:44:40;6.77;;;4.30;;
5363;SDS011;2705;41.410;2.160;2023-05-07T10:47:16;7.57;;;5.10;;
5363;SDS011;2705;41.410;2.160;2023-05-07T10:56:26;13.90;;;5.60;;
5363;SDS011;2705;41.410;2.160;2023-05-07T11:02:19;10.53;;;5.63;;
5363;SDS011;2705;41.410;2.160;2023-05-07T11:08:00;11.97;;;6.30;;
5363;SDS011;2705;41.410;2.160;2023-05-07T11:10:48;9.83;;;6.50;;
5363;SDS011;2705;41.410;2.160;2023-05-07T11:13:41;9.57;;;6.17;;
5363;SDS011;2705;41.410;2.160;2023-05-07T11:16:23;12.10;;;7.80;;
5363;SDS011;2705;41.410;2.160;2023-05-07T11:19:48;7.63;;;5.83;;
5363;SDS011;2705;41.410;2.160;2023-05-07T11:22:48;10.43;;;6.30;;
5363;SDS011;2705;41.410;2.160;2023-05-07T11:25:38;18.67;;;7.50;;
5363;SDS011;2705;41.410;2.160;2023-05-07T11:28:16;13.83;;;6.50;;
5363;SDS011;2705;41.410;2.160;2023-05-07T11:30:54;11.40;;;6.10;;
5363;SDS011;2705;41.410;2.160;2023-05-07T11:33:26;13.53;;;6.73;;
5363;SDS011;2705;41.410;2.160;2023-05-07T11:35:56;13.70;;;7.77;;
5363;SDS011;2705;41.410;2.160;2023-05-07T11:38:34;13.13;;;7.33;;
5363;SDS011;2705;41.410;2.160;2023-05-07T11:41:04;13.20;;;7.40;;
5363;SDS011;2705;41.410;2.160;2023-05-07T11:43:34;10.37;;;7.20;;
5363;SDS011;2705;41.410;2.160;2023-05-07T11:46:08;10.60;;;7.17;;
5363;SDS011;2705;41.410;2.160;2023-05-07T11:48:39;18.30;;;7.40;;
5363;SDS011;2705;41.410;2.160;2023-05-07T11:51:08;12.30;;;7.60;;
5363;SDS011;2705;41.410;2.160;2023-05-07T11:53:39;11.47;;;7.63;;
5363;SDS011;2705;41.410;2.160;2023-05-07T11:56:09;15.03;;;7.07;;
5363;SDS011;2705;41.410;2.160;2023-05-07T11:58:40;8.93;;;5.97;;
5363;SDS011;2705;41.410;2.160;2023-05-07T12:01:10;12.33;;;8.20;;
5363;SDS011;2705;41.410;2.160;2023-05-07T12:03:43;20.43;;;8.20;;
5363;SDS011;2705;41.410;2.160;2023-05-07T12:06:14;14.13;;;8.03;;
5363;SDS011;2705;41.410;2.160;2023-05-07T12:08:45;9.40;;;6.53;;
5363;SDS011;2705;41.410;2.160;2023-05-07T12:11:16;17.77;;;7.43;;
5363;SDS011;2705;41.410;2.160;2023-05-07T12:13:53;12.43;;;6.60;;
5363;SDS011;2705;41.410;2.160;2023-05-07T12:16:25;13.33;;;7.13;;
5363;SDS011;2705;41.410;2.160;2023-05-07T12:18:57;11.60;;;6.60;;
5363;SDS011;2705;41.410;2.160;2023-05-07T12:21:26;12.10;;;6.80;;
5363;SDS011;2705;41.410;2.160;2023-05-07T12:23:56;13.27;;;7.30;;
5363;SDS011;2705;41.410;2.160;2023-05-07T12:26:25;11.10;;;6.93;;
5363;SDS011;2705;41.410;2.160;2023-05-07T12:28:54;18.70;;;10.83;;
5363;SDS011;2705;41.410;2.160;2023-05-07T12:31:25;10.50;;;6.60;;
5363;SDS011;2705;41.410;2.160;2023-05-07T12:33:55;11.33;;;6.80;;
5363;SDS011;2705;41.410;2.160;2023-05-07T12:36:25;13.97;;;8.10;;
5363;SDS011;2705;41.410;2.160;2023-05-07T12:39:04;14.17;;;6.83;;
5363;SDS011;2705;41.410;2.160;2023-05-07T12:41:36;9.70;;;6.03;;
5363;SDS011;2705;41.410;2.160;2023-05-07T12:44:21;12.93;;;6.80;;
5363;SDS011;2705;41.410;2.160;2023-05-07T12:46:51;12.63;;;6.43;;
5363;SDS011;2705;41.410;2.160;2023-05-07T12:49:22;13.33;;;8.00;;
5363;SDS011;2705;41.410;2.160;2023-05-07T12:51:51;15.63;;;8.63;;
5363;SDS011;2705;41.410;2.160;2023-05-07T12:54:28;9.40;;;6.23;;
5363;SDS011;2705;41.410;2.160;2023-05-07T12:57:02;7.63;;;4.83;;
5363;SDS011;2705;41.410;2.160;2023-05-07T12:59:34;11.43;;;5.87;;
5363;SDS011;2705;41.410;2.160;2023-05-07T13:02:04;12.80;;;6.43;;
5363;SDS011;2705;41.410;2.160;2023-05-07T13:04:37;8.73;;;5.90;;
5363;SDS011;2705;41.410;2.160;2023-05-07T13:07:06;9.50;;;5.10;;
5363;SDS011;2705;41.410;2.160;2023-05-07T13:09:35;9.53;;;5.50;;
5363;SDS011;2705;41.410;2.160;2023-05-07T13:12:05;19.30;;;10.13;;
5363;SDS011;2705;41.410;2.160;2023-05-07T13:14:34;13.20;;;7.80;;
5363;SDS011;2705;41.410;2.160;2023-05-07T13:17:03;12.27;;;4.17;;
5363;SDS011;2705;41.410;2.160;2023-05-07T13:19:32;7.97;;;5.30;;
5363;SDS011;2705;41.410;2.160;2023-05-07T13:22:02;8.47;;;4.83;;
5363;SDS011;2705;41.410;2.160;2023-05-07T13:24:31;9.33;;;4.43;;
5363;SDS011;2705;41.410;2.160;2023-05-07T13:27:00;7.67;;;4.20;;
5363;SDS011;2705;41.410;2.160;2023-05-07T13:29:29;10.63;;;4.80;;
5363;SDS011;2705;41.410;2.160;2023-05-07T13:31:59;6.53;;;3.70;;
5363;SDS011;2705;41.410;2.160;2023-05-07T13:34:28;11.30;;;5.03;;
5363;SDS011;2705;41.410;2.160;2023-05-07T13:36:58;11.23;;;5.10;;
5363;SDS011;2705;41.410;2.160;2023-05-07T13:39:28;7.30;;;4.53;;
5363;SDS011;2705;41.410;2.160;2023-05-07T13:41:57;10.80;;;5.00;;
5363;SDS011;2705;41.410;2.160;2023-05-07T13:44:26;5.50;;;3.93;;
5363;SDS011;2705;41.410;2.160;2023-05-07T13:46:55;7.47;;;4.47;;
5363;SDS011;2705;41.410;2.160;2023-05-07T13:49:24;7.30;;;4.90;;
5363;SDS011;2705;41.410;2.160;2023-05-07T13:51:54;14.43;;;6.07;;
5363;SDS011;2705;41.410;2.160;2023-05-07T13:54:23;5.50;;;3.23;;
5363;SDS011;2705;41.410;2.160;2023-05-07T13:56:54;5.67;;;3.80;;
5363;SDS011;2705;41.410;2.160;2023-05-07T13:59:23;3.80;;;2.80;;
5363;SDS011;2705;41.410;2.160;2023-05-07T14:01:53;5.77;;;3.73;;
5363;SDS011;2705;41.410;2.160;2023-05-07T14:04:22;9.07;;;3.77;;
5363;SDS011;2705;41.410;2.160;2023-05-07T14:06:51;7.57;;;3.90;;
5363;SDS011;2705;41.410;2.160;2023-05-07T14:09:20;7.70;;;3.60;;
5363;SDS011;2705;41.410;2.160;2023-05-07T14:11:49;7.93;;;3.23;;
5363;SDS011;2705;41.410;2.160;2023-05-07T14:14:20;12.17;;;3.90;;
5363;SDS011;2705;41.410;2.160;2023-05-07T14:16:49;10.47;;;4.47;;
5363;SDS011;2705;41.410;2.160;2023-05-07T14:19:18;4.87;;;3.13;;
5363;SDS011;2705;41.410;2.160;2023-05-07T14:21:50;6.43;;;3.33;;
5363;SDS011;2705;41.410;2.160;2023-05-07T14:24:19;6.43;;;3.77;;
5363;SDS011;2705;41.410;2.160;2023-05-07T14:27:04;5.93;;;4.20;;
5363;SDS011;2705;41.410;2.160;2023-05-07T14:29:34;5.20;;;3.10;;
5363;SDS011;2705;41.410;2.160;2023-05-07T14:32:04;8.27;;;3.80;;
5363;SDS011;2705;41.410;2.160;2023-05-07T14:34:33;10.23;;;4.63;;
5363;SDS011;2705;41.410;2.160;2023-05-07T14:37:03;11.43;;;4.50;;
5363;SDS011;2705;41.410;2.160;2023-05-07T14:39:31;6.13;;;3.43;;
5363;SDS011;2705;41.410;2.160;2023-05-07T14:42:00;6.40;;;3.30;;
5363;SDS011;2705;41.410;2.160;2023-05-07T14:44:29;8.40;;;4.40;;
5363;SDS011;2705;41.410;2.160;2023-05-07T14:47:01;6.23;;;3.27;;
5363;SDS011;2705;41.410;2.160;2023-05-07T14:49:30;8.33;;;2.83;;
5363;SDS011;2705;41.410;2.160;2023-05-07T14:51:59;9.07;;;2.73;;
5363;SDS011;2705;41.410;2.160;2023-05-07T14:54:28;8.00;;;3.93;;
5363;SDS011;2705;41.410;2.160;2023-05-07T14:56:57;10.70;;;3.27;;
5363;SDS011;2705;41.410;2.160;2023-05-07T14:59:26;8.40;;;3.50;;
5363;SDS011;2705;41.410;2.160;2023-05-07T15:01:56;6.90;;;3.30;;
5363;SDS011;2705;41.410;2.160;2023-05-07T15:04:27;6.07;;;4.20;;
5363;SDS011;2705;41.410;2.160;2023-05-07T15:06:56;6.73;;;3.33;;
5363;SDS011;2705;41.410;2.160;2023-05-07T15:09:25;6.90;;;3.20;;
5363;SDS011;2705;41.410;2.160;2023-05-07T15:11:55;8.70;;;3.57;;
5363;SDS011;2705;41.410;2.160;2023-05-07T15:14:25;8.10;;;3.13;;
5363;SDS011;2705;41.410;2.160;2023-05-07T15:16:54;8.37;;;3.13;;
5363;SDS011;2705;41.410;2.160;2023-05-07T15:19:23;5.90;;;4.70;;
5363;SDS011;2705;41.410;2.160;2023-05-07T15:21:58;11.30;;;4.60;;
5363;SDS011;2705;41.410;2.160;2023-05-07T15:24:29;5.07;;;2.80;;
5363;SDS011;2705;41.410;2.160;2023-05-07T15:26:59;5.30;;;2.77;;
5363;SDS011;2705;41.410;2.160;2023-05-07T15:29:29;6.23;;;2.97;;
5363;SDS011;2705;41.410;2.160;2023-05-07T15:32:00;7.90;;;3.30;;
5363;SDS011;2705;41.410;2.160;2023-05-07T15:34:29;6.90;;;3.27;;
5363;SDS011;2705;41.410;2.160;2023-05-07T15:37:00;4.57;;;2.87;;
5363;SDS011;2705;41.410;2.160;2023-05-07T15:39:30;8.17;;;3.30;;
5363;SDS011;2705;41.410;2.160;2023-05-07T15:41:59;6.87;;;4.40;;
5363;SDS011;2705;41.410;2.160;2023-05-07T15:44:29;5.30;;;3.40;;
5363;SDS011;2705;41.410;2.160;2023-05-07T15:47:01;7.33;;;3.80;;